sensor_id;sensor_type;location;lat;lon;timestamp;pressure;altitude;pressure_sealevel;temperature;humidity
75312;BME280;63906;55.686;37.532;2023-04-24T00:04:53;99470.81;;;9.47;46.13
75312;BME280;63906;55.686;37.532;2023-04-24T00:09:54;99500.94;;;9.66;46.41
75312;BME280;63906;55.686;37.532;2023-04-24T00:14:54;99509.09;;;9.71;46.92
75312;BME280;63906;55.686;37.532;2023-04-24T00:19:55;99467.13;;;9.41;46.67
75312;BME280;63906;55.686;37.532;2023-04-24T00:24:58;99492.53;;;9.56;46.68
75312;BME280;63906;55.686;37.532;2023-04-24T00:29:59;99501.69;;;9.60;46.46
75312;BME280;63906;55.686;37.532;2023-04-24T00:35:00;99474.38;;;9.39;46.27
75312;BME280;63906;55.686;37.532;2023-04-24T00:40:00;99471.97;;;9.38;46.30
75312;BME280;63906;55.686;37.532;2023-04-24T00:45:02;99496.91;;;9.49;46.20
75312;BME280;63906;55.686;37.532;2023-04-24T00:50:04;99497.91;;;9.48;46.14
75312;BME280;63906;55.686;37.532;2023-04-24T00:55:06;99492.38;;;9.57;46.29
75312;BME280;63906;55.686;37.532;2023-04-24T01:00:07;99502.00;;;9.71;45.75
75312;BME280;63906;55.686;37.532;2023-04-24T01:05:13;99490.50;;;9.73;45.12
75312;BME280;63906;55.686;37.532;2023-04-24T01:10:14;99474.97;;;9.78;45.03
75312;BME280;63906;55.686;37.532;2023-04-24T01:15:15;99469.28;;;10.45;41.54
75312;BME280;63906;55.686;37.532;2023-04-24T01:20:16;99490.34;;;11.27;41.47
75312;BME280;63906;55.686;37.532;2023-04-24T01:25:17;99467.84;;;11.25;41.21
75312;BME280;63906;55.686;37.532;2023-04-24T01:30:18;99465.91;;;10.99;40.67
75312;BME280;63906;55.686;37.532;2023-04-24T01:35:18;99458.59;;;10.88;40.82
75312;BME280;63906;55.686;37.532;2023-04-24T01:40:20;99485.81;;;11.08;40.72
75312;BME280;63906;55.686;37.532;2023-04-24T01:45:20;99484.19;;;11.07;41.49
75312;BME280;63906;55.686;37.532;2023-04-24T01:50:21;99476.50;;;11.12;41.23
75312;BME280;63906;55.686;37.532;2023-04-24T01:55:21;99455.16;;;10.94;40.15
75312;BME280;63906;55.686;37.532;2023-04-24T02:00:22;99464.66;;;10.88;39.85
75312;BME280;63906;55.686;37.532;2023-04-24T02:05:24;99457.69;;;10.74;40.03
75312;BME280;63906;55.686;37.532;2023-04-24T02:10:25;99484.16;;;11.00;39.99
75312;BME280;63906;55.686;37.532;2023-04-24T02:15:25;99452.34;;;11.02;39.41
75312;BME280;63906;55.686;37.532;2023-04-24T02:20:26;99480.59;;;11.21;40.75
75312;BME280;63906;55.686;37.532;2023-04-24T02:25:26;99476.88;;;11.02;40.18
75312;BME280;63906;55.686;37.532;2023-04-24T02:30:27;99475.28;;;10.73;41.81
75312;BME280;63906;55.686;37.532;2023-04-24T02:35:28;99487.06;;;10.77;42.76
75312;BME280;63906;55.686;37.532;2023-04-24T02:40:28;99481.06;;;10.56;41.39
75312;BME280;63906;55.686;37.532;2023-04-24T02:45:29;99488.38;;;10.60;42.97
75312;BME280;63906;55.686;37.532;2023-04-24T02:50:30;99469.28;;;10.45;42.75
75312;BME280;63906;55.686;37.532;2023-04-24T02:55:30;99444.91;;;10.36;42.13
75312;BME280;63906;55.686;37.532;2023-04-24T03:00:31;99505.44;;;10.64;42.90
75312;BME280;63906;55.686;37.532;2023-04-24T03:05:32;99476.22;;;10.59;42.83
75312;BME280;63906;55.686;37.532;2023-04-24T03:10:32;99494.63;;;10.87;42.42
75312;BME280;63906;55.686;37.532;2023-04-24T03:15:33;99512.69;;;10.97;41.04
75312;BME280;63906;55.686;37.532;2023-04-24T03:20:33;99502.44;;;11.15;40.17
75312;BME280;63906;55.686;37.532;2023-04-24T03:25:34;99511.16;;;11.70;38.62
75312;BME280;63906;55.686;37.532;2023-04-24T03:30:34;99517.94;;;11.99;38.17
75312;BME280;63906;55.686;37.532;2023-04-24T03:35:35;99484.44;;;12.00;37.82
75312;BME280;63906;55.686;37.532;2023-04-24T03:40:36;99479.78;;;12.08;37.67
75312;BME280;63906;55.686;37.532;2023-04-24T03:45:36;99491.75;;;12.37;36.23
75312;BME280;63906;55.686;37.532;2023-04-24T03:50:37;99514.84;;;12.75;35.98
75312;BME280;63906;55.686;37.532;2023-04-24T03:55:37;99526.97;;;13.03;35.45
75312;BME280;63906;55.686;37.532;2023-04-24T04:00:38;99503.38;;;13.01;34.90
75312;BME280;63906;55.686;37.532;2023-04-24T04:05:40;99537.91;;;13.26;35.11
75312;BME280;63906;55.686;37.532;2023-04-24T04:10:41;99509.44;;;13.22;34.46
75312;BME280;63906;55.686;37.532;2023-04-24T04:15:41;99499.84;;;13.27;34.02
75312;BME280;63906;55.686;37.532;2023-04-24T04:20:42;99511.63;;;13.38;34.09
75312;BME280;63906;55.686;37.532;2023-04-24T04:25:42;99536.94;;;13.59;34.10
75312;BME280;63906;55.686;37.532;2023-04-24T04:30:43;99535.06;;;13.66;33.76
75312;BME280;63906;55.686;37.532;2023-04-24T04:35:43;99514.50;;;13.68;33.40
75312;BME280;63906;55.686;37.532;2023-04-24T04:40:44;99528.88;;;13.85;32.83
75312;BME280;63906;55.686;37.532;2023-04-24T04:45:45;99541.19;;;13.98;33.19
75312;BME280;63906;55.686;37.532;2023-04-24T04:50:46;99521.16;;;14.09;32.94
75312;BME280;63906;55.686;37.532;2023-04-24T04:55:46;99533.59;;;14.33;32.35
75312;BME280;63906;55.686;37.532;2023-04-24T05:00:47;99484.50;;;14.12;31.72
75312;BME280;63906;55.686;37.532;2023-04-24T05:05:48;99532.53;;;14.66;31.67
75312;BME280;63906;55.686;37.532;2023-04-24T05:10:49;99522.31;;;14.69;31.50
75312;BME280;63906;55.686;37.532;2023-04-24T05:15:50;99535.19;;;14.84;32.03
75312;BME280;63906;55.686;37.532;2023-04-24T05:20:50;99548.47;;;15.02;31.44
75312;BME280;63906;55.686;37.532;2023-04-24T05:25:51;99540.00;;;15.12;31.14
75312;BME280;63906;55.686;37.532;2023-04-24T05:30:51;99547.78;;;15.44;30.54
75312;BME280;63906;55.686;37.532;2023-04-24T05:35:52;99546.94;;;15.61;30.03
75312;BME280;63906;55.686;37.532;2023-04-24T05:40:52;99519.22;;;15.57;30.17
75312;BME280;63906;55.686;37.532;2023-04-24T05:45:53;99516.66;;;15.69;29.93
75312;BME280;63906;55.686;37.532;2023-04-24T05:50:54;99533.03;;;15.96;30.09
75312;BME280;63906;55.686;37.532;2023-04-24T05:55:54;99535.22;;;15.99;29.31
75312;BME280;63906;55.686;37.532;2023-04-24T06:00:55;99477.69;;;15.81;29.27
75312;BME280;63906;55.686;37.532;2023-04-24T06:05:56;99535.84;;;16.25;29.54
75312;BME280;63906;55.686;37.532;2023-04-24T06:10:56;99537.72;;;16.36;29.17
75312;BME280;63906;55.686;37.532;2023-04-24T06:15:57;99536.44;;;16.38;29.07
75312;BME280;63906;55.686;37.532;2023-04-24T06:20:57;99484.22;;;16.21;28.73
75312;BME280;63906;55.686;37.532;2023-04-24T06:25:58;99544.56;;;16.67;28.42
75312;BME280;63906;55.686;37.532;2023-04-24T06:30:59;99533.84;;;16.74;28.34
75312;BME280;63906;55.686;37.532;2023-04-24T06:36:00;99548.03;;;16.91;28.31
75312;BME280;63906;55.686;37.532;2023-04-24T06:41:00;99523.63;;;16.94;28.15
75312;BME280;63906;55.686;37.532;2023-04-24T06:46:01;99543.38;;;17.21;27.86
75312;BME280;63906;55.686;37.532;2023-04-24T06:51:03;99532.06;;;17.43;27.04
75312;BME280;63906;55.686;37.532;2023-04-24T06:56:04;99539.47;;;17.53;26.90
75312;BME280;63906;55.686;37.532;2023-04-24T07:01:04;99526.13;;;17.64;26.46
75312;BME280;63906;55.686;37.532;2023-04-24T07:06:05;99547.56;;;17.86;26.05
75312;BME280;63906;55.686;37.532;2023-04-24T07:11:06;99557.91;;;17.83;25.84
75312;BME280;63906;55.686;37.532;2023-04-24T07:16:07;99566.66;;;18.12;25.89
75312;BME280;63906;55.686;37.532;2023-04-24T07:21:07;99538.22;;;18.00;24.73
75312;BME280;63906;55.686;37.532;2023-04-24T07:26:08;99559.09;;;18.20;25.36
75312;BME280;63906;55.686;37.532;2023-04-24T07:31:10;99546.97;;;18.29;25.65
75312;BME280;63906;55.686;37.532;2023-04-24T07:36:11;99557.78;;;18.40;25.29
75312;BME280;63906;55.686;37.532;2023-04-24T07:41:15;99507.25;;;18.28;25.40
75312;BME280;63906;55.686;37.532;2023-04-24T07:46:16;99557.38;;;18.65;24.89
75312;BME280;63906;55.686;37.532;2023-04-24T07:51:17;99550.94;;;18.77;24.55
75312;BME280;63906;55.686;37.532;2023-04-24T07:56:17;99544.19;;;18.92;24.31
75312;BME280;63906;55.686;37.532;2023-04-24T08:01:18;99518.81;;;18.89;24.22
75312;BME280;63906;55.686;37.532;2023-04-24T08:06:18;99520.50;;;19.17;23.73
75312;BME280;63906;55.686;37.532;2023-04-24T08:11:19;99537.81;;;19.85;22.10
75312;BME280;63906;55.686;37.532;2023-04-24T08:16:20;99527.63;;;20.09;22.00
75312;BME280;63906;55.686;37.532;2023-04-24T08:21:20;99531.78;;;20.27;22.03
75312;BME280;63906;55.686;37.532;2023-04-24T08:26:21;99451.97;;;19.45;22.38
75312;BME280;63906;55.686;37.532;2023-04-24T08:31:22;99510.06;;;19.37;23.01
75312;BME280;63906;55.686;37.532;2023-04-24T08:36:25;99510.63;;;19.18;22.64
75312;BME280;63906;55.686;37.532;2023-04-24T08:41:26;99499.88;;;19.34;22.76
75312;BME280;63906;55.686;37.532;2023-04-24T08:46:27;99517.47;;;19.79;22.30
75312;BME280;63906;55.686;37.532;2023-04-24T08:51:30;99510.31;;;19.85;22.58
75312;BME280;63906;55.686;37.532;2023-04-24T08:56:33;99508.88;;;20.04;21.97
75312;BME280;63906;55.686;37.532;2023-04-24T09:01:34;99485.13;;;20.08;22.49
75312;BME280;63906;55.686;37.532;2023-04-24T09:06:35;99478.50;;;20.15;22.07
75312;BME280;63906;55.686;37.532;2023-04-24T09:11:36;99494.97;;;20.77;20.73
75312;BME280;63906;55.686;37.532;2023-04-24T09:16:37;99499.84;;;20.90;20.73
75312;BME280;63906;55.686;37.532;2023-04-24T09:21:38;99492.94;;;21.04;20.88
75312;BME280;63906;55.686;37.532;2023-04-24T09:26:38;99484.69;;;21.11;20.65
75312;BME280;63906;55.686;37.532;2023-04-24T09:31:39;99480.41;;;21.15;19.93
75312;BME280;63906;55.686;37.532;2023-04-24T09:36:42;99471.41;;;21.41;20.09
75312;BME280;63906;55.686;37.532;2023-04-24T09:41:55;99440.09;;;21.47;20.64
75312;BME280;63906;55.686;37.532;2023-04-24T09:46:59;99453.00;;;22.01;19.54
75312;BME280;63906;55.686;37.532;2023-04-24T09:52:05;99474.16;;;21.72;20.13
75312;BME280;63906;55.686;37.532;2023-04-24T09:57:09;99467.69;;;21.37;20.02
75312;BME280;63906;55.686;37.532;2023-04-24T10:02:18;99456.16;;;21.47;19.96
75312;BME280;63906;55.686;37.532;2023-04-24T10:07:19;99429.34;;;22.49;19.48
75312;BME280;63906;55.686;37.532;2023-04-24T10:12:21;99422.88;;;26.21;16.37
75312;BME280;63906;55.686;37.532;2023-04-24T10:17:22;99428.25;;;29.35;13.34
75312;BME280;63906;55.686;37.532;2023-04-24T10:22:25;99428.91;;;30.98;11.65
75312;BME280;63906;55.686;37.532;2023-04-24T10:27:27;99435.13;;;29.67;12.30
75312;BME280;63906;55.686;37.532;2023-04-24T10:32:28;99429.72;;;31.61;11.30
75312;BME280;63906;55.686;37.532;2023-04-24T10:37:35;99401.66;;;33.57;11.02
75312;BME280;63906;55.686;37.532;2023-04-24T10:42:40;99422.63;;;34.75;9.40
75312;BME280;63906;55.686;37.532;2023-04-24T10:47:43;99414.94;;;36.20;9.04
75312;BME280;63906;55.686;37.532;2023-04-24T10:52:50;99399.34;;;35.59;8.81
75312;BME280;63906;55.686;37.532;2023-04-24T10:58:03;99428.22;;;38.87;8.06
75312;BME280;63906;55.686;37.532;2023-04-24T11:03:06;99411.72;;;38.29;7.15
75312;BME280;63906;55.686;37.532;2023-04-24T11:08:13;99411.59;;;33.49;9.55
75312;BME280;63906;55.686;37.532;2023-04-24T11:13:16;99396.75;;;32.69;9.81
75312;BME280;63906;55.686;37.532;2023-04-24T11:18:17;99386.50;;;36.81;7.94
75312;BME280;63906;55.686;37.532;2023-04-24T11:23:17;99359.91;;;38.38;7.31
75312;BME280;63906;55.686;37.532;2023-04-24T11:28:18;99378.78;;;39.09;5.96
75312;BME280;63906;55.686;37.532;2023-04-24T11:33:20;99377.13;;;36.29;7.55
75312;BME280;63906;55.686;37.532;2023-04-24T11:38:21;99365.03;;;34.68;8.00
75312;BME280;63906;55.686;37.532;2023-04-24T11:43:22;99349.81;;;36.10;7.82
75312;BME280;63906;55.686;37.532;2023-04-24T11:48:23;99359.44;;;36.50;7.62
75312;BME280;63906;55.686;37.532;2023-04-24T11:53:23;99356.28;;;34.43;8.55
75312;BME280;63906;55.686;37.532;2023-04-24T11:58:24;99319.63;;;31.05;10.74
75312;BME280;63906;55.686;37.532;2023-04-24T12:03:26;99300.69;;;28.96;12.11
75312;BME280;63906;55.686;37.532;2023-04-24T12:08:28;99343.66;;;30.23;11.80
75312;BME280;63906;55.686;37.532;2023-04-24T12:13:29;99330.03;;;28.94;12.07
75312;BME280;63906;55.686;37.532;2023-04-24T12:18:30;99325.97;;;28.09;12.26
75312;BME280;63906;55.686;37.532;2023-04-24T12:23:37;99303.50;;;25.69;14.65
75312;BME280;63906;55.686;37.532;2023-04-24T12:28:38;99309.66;;;25.56;14.55
75312;BME280;63906;55.686;37.532;2023-04-24T12:33:39;99322.38;;;28.31;13.33
75312;BME280;63906;55.686;37.532;2023-04-24T12:38:43;99305.03;;;31.09;10.78
75312;BME280;63906;55.686;37.532;2023-04-24T12:43:53;99289.50;;;34.60;9.27
75312;BME280;63906;55.686;37.532;2023-04-24T12:48:53;99277.13;;;35.93;7.95
75312;BME280;63906;55.686;37.532;2023-04-24T12:53:54;99293.59;;;36.46;7.45
75312;BME280;63906;55.686;37.532;2023-04-24T12:58:54;99291.50;;;34.63;8.34
75312;BME280;63906;55.686;37.532;2023-04-24T13:03:55;99290.84;;;34.35;8.81
75312;BME280;63906;55.686;37.532;2023-04-24T13:08:55;99272.91;;;35.30;8.07
75312;BME280;63906;55.686;37.532;2023-04-24T13:13:58;99271.97;;;35.42;7.94
75312;BME280;63906;55.686;37.532;2023-04-24T13:18:58;99263.78;;;35.46;7.69
75312;BME280;63906;55.686;37.532;2023-04-24T13:23:59;99279.34;;;35.42;7.87
75312;BME280;63906;55.686;37.532;2023-04-24T13:28:59;99280.59;;;33.81;8.31
75312;BME280;63906;55.686;37.532;2023-04-24T13:34:00;99275.66;;;32.18;9.61
75312;BME280;63906;55.686;37.532;2023-04-24T13:39:01;99270.69;;;29.28;11.24
75312;BME280;63906;55.686;37.532;2023-04-24T13:44:03;99265.09;;;28.55;12.06
75312;BME280;63906;55.686;37.532;2023-04-24T13:49:03;99265.75;;;27.63;12.45
75312;BME280;63906;55.686;37.532;2023-04-24T13:54:04;99270.56;;;26.54;12.98
75312;BME280;63906;55.686;37.532;2023-04-24T13:59:05;99250.88;;;26.76;13.38
75312;BME280;63906;55.686;37.532;2023-04-24T14:04:05;99223.78;;;27.66;12.79
75312;BME280;63906;55.686;37.532;2023-04-24T14:09:06;99237.66;;;28.30;11.74
75312;BME280;63906;55.686;37.532;2023-04-24T14:14:07;99218.13;;;26.92;13.31
75312;BME280;63906;55.686;37.532;2023-04-24T14:19:08;99239.97;;;26.31;13.23
75312;BME280;63906;55.686;37.532;2023-04-24T14:24:08;99217.00;;;24.73;14.57
75312;BME280;63906;55.686;37.532;2023-04-24T14:29:09;99248.72;;;23.66;15.50
75312;BME280;63906;55.686;37.532;2023-04-24T14:34:10;99214.22;;;22.86;16.49
75312;BME280;63906;55.686;37.532;2023-04-24T14:39:10;99217.69;;;22.52;16.58
75312;BME280;63906;55.686;37.532;2023-04-24T14:44:12;99232.94;;;22.57;16.77
75312;BME280;63906;55.686;37.532;2023-04-24T14:49:12;99236.91;;;22.65;16.99
75312;BME280;63906;55.686;37.532;2023-04-24T14:54:13;99225.88;;;23.10;16.56
75312;BME280;63906;55.686;37.532;2023-04-24T14:59:14;99215.97;;;23.35;16.10
75312;BME280;63906;55.686;37.532;2023-04-24T15:04:14;99211.66;;;22.71;16.74
75312;BME280;63906;55.686;37.532;2023-04-24T15:09:15;99201.69;;;22.37;16.90
75312;BME280;63906;55.686;37.532;2023-04-24T15:14:16;99192.44;;;22.04;17.48
75312;BME280;63906;55.686;37.532;2023-04-24T15:19:17;99221.66;;;22.06;17.72
75312;BME280;63906;55.686;37.532;2023-04-24T15:24:17;99228.66;;;21.96;17.71
75312;BME280;63906;55.686;37.532;2023-04-24T15:29:18;99223.25;;;22.07;17.74
75312;BME280;63906;55.686;37.532;2023-04-24T15:34:19;99191.03;;;21.52;17.49
75312;BME280;63906;55.686;37.532;2023-04-24T15:39:22;99184.38;;;21.29;18.52
75312;BME280;63906;55.686;37.532;2023-04-24T15:44:23;99214.34;;;21.41;18.03
75312;BME280;63906;55.686;37.532;2023-04-24T15:49:24;99198.28;;;21.36;18.12
75312;BME280;63906;55.686;37.532;2023-04-24T15:54:25;99213.25;;;21.47;18.01
75312;BME280;63906;55.686;37.532;2023-04-24T15:59:26;99214.91;;;21.33;18.14
75312;BME280;63906;55.686;37.532;2023-04-24T16:04:28;99184.41;;;20.63;18.46
75312;BME280;63906;55.686;37.532;2023-04-24T16:09:28;99222.31;;;20.44;19.60
75312;BME280;63906;55.686;37.532;2023-04-24T16:14:29;99221.09;;;20.05;19.82
75312;BME280;63906;55.686;37.532;2023-04-24T16:19:30;99232.69;;;19.68;20.37
75312;BME280;63906;55.686;37.532;2023-04-24T16:24:31;99226.94;;;19.49;20.27
75312;BME280;63906;55.686;37.532;2023-04-24T16:29:31;99202.25;;;18.90;21.60
75312;BME280;63906;55.686;37.532;2023-04-24T16:34:32;99232.25;;;19.07;21.07
75312;BME280;63906;55.686;37.532;2023-04-24T16:39:33;99203.19;;;18.51;21.67
75312;BME280;63906;55.686;37.532;2023-04-24T16:44:34;99205.59;;;18.26;22.26
75312;BME280;63906;55.686;37.532;2023-04-24T16:49:34;99238.19;;;18.11;23.20
75312;BME280;63906;55.686;37.532;2023-04-24T16:54:35;99232.50;;;18.02;22.64
75312;BME280;63906;55.686;37.532;2023-04-24T16:59:37;99231.38;;;17.77;22.90
75312;BME280;63906;55.686;37.532;2023-04-24T17:04:37;99255.16;;;17.66;23.48
75312;BME280;63906;55.686;37.532;2023-04-24T17:09:38;99173.63;;;16.88;23.86
75312;BME280;63906;55.686;37.532;2023-04-24T17:14:38;99252.84;;;17.19;24.04
75312;BME280;63906;55.686;37.532;2023-04-24T17:19:39;99255.72;;;17.01;24.90
75312;BME280;63906;55.686;37.532;2023-04-24T17:24:39;99188.44;;;16.38;25.05
75312;BME280;63906;55.686;37.532;2023-04-24T17:29:40;99270.88;;;16.84;25.14
75312;BME280;63906;55.686;37.532;2023-04-24T17:34:41;99247.75;;;16.56;24.99
75312;BME280;63906;55.686;37.532;2023-04-24T17:39:42;99288.59;;;16.66;25.34
75312;BME280;63906;55.686;37.532;2023-04-24T17:44:42;99285.19;;;16.54;25.20
75312;BME280;63906;55.686;37.532;2023-04-24T17:49:43;99269.25;;;16.54;24.82
75312;BME280;63906;55.686;37.532;2023-04-24T17:54:43;99259.03;;;16.34;25.40
75312;BME280;63906;55.686;37.532;2023-04-24T17:59:44;99278.78;;;16.27;25.58
75312;BME280;63906;55.686;37.532;2023-04-24T18:04:45;99274.53;;;16.14;26.42
75312;BME280;63906;55.686;37.532;2023-04-24T18:09:45;99276.66;;;15.88;25.56
75312;BME280;63906;55.686;37.532;2023-04-24T18:14:46;99293.28;;;15.96;26.65
75312;BME280;63906;55.686;37.532;2023-04-24T18:19:46;99275.66;;;15.78;25.98
75312;BME280;63906;55.686;37.532;2023-04-24T18:24:47;99261.34;;;15.79;26.54
75312;BME280;63906;55.686;37.532;2023-04-24T18:29:47;99293.41;;;15.89;26.17
75312;BME280;63906;55.686;37.532;2023-04-24T18:34:48;99298.38;;;15.97;26.42
75312;BME280;63906;55.686;37.532;2023-04-24T18:39:49;99271.16;;;15.78;26.46
75312;BME280;63906;55.686;37.532;2023-04-24T18:44:50;99293.75;;;15.81;27.09
75312;BME280;63906;55.686;37.532;2023-04-24T18:49:50;99281.53;;;15.92;26.78
75312;BME280;63906;55.686;37.532;2023-04-24T18:54:51;99297.28;;;16.22;26.35
75312;BME280;63906;55.686;37.532;2023-04-24T18:59:51;99302.78;;;16.32;26.93
75312;BME280;63906;55.686;37.532;2023-04-24T19:04:52;99292.44;;;16.19;27.76
75312;BME280;63906;55.686;37.532;2023-04-24T19:09:52;99271.31;;;16.12;27.29
75312;BME280;63906;55.686;37.532;2023-04-24T19:14:53;99309.78;;;16.09;27.30
75312;BME280;63906;55.686;37.532;2023-04-24T19:19:56;99307.22;;;16.14;27.22
75312;BME280;63906;55.686;37.532;2023-04-24T19:24:56;99309.91;;;16.03;27.60
75312;BME280;63906;55.686;37.532;2023-04-24T19:30:00;99290.66;;;15.84;26.92
75312;BME280;63906;55.686;37.532;2023-04-24T19:35:00;99312.78;;;16.01;27.09
75312;BME280;63906;55.686;37.532;2023-04-24T19:40:01;99277.28;;;15.79;27.13
75312;BME280;63906;55.686;37.532;2023-04-24T19:45:02;99291.47;;;15.96;27.60
75312;BME280;63906;55.686;37.532;2023-04-24T19:50:03;99311.03;;;16.07;27.90
75312;BME280;63906;55.686;37.532;2023-04-24T19:55:04;99303.00;;;15.90;27.37
75312;BME280;63906;55.686;37.532;2023-04-24T20:00:05;99282.22;;;15.64;27.52
75312;BME280;63906;55.686;37.532;2023-04-24T20:05:07;99305.66;;;15.78;27.92
75312;BME280;63906;55.686;37.532;2023-04-24T20:10:08;99297.81;;;15.72;27.88
75312;BME280;63906;55.686;37.532;2023-04-24T20:15:09;99306.88;;;15.52;28.61
75312;BME280;63906;55.686;37.532;2023-04-24T20:20:10;99316.16;;;15.20;28.88
75312;BME280;63906;55.686;37.532;2023-04-24T20:25:11;99283.78;;;14.76;30.09
75312;BME280;63906;55.686;37.532;2023-04-24T20:30:14;99287.97;;;14.53;30.33
75312;BME280;63906;55.686;37.532;2023-04-24T20:35:15;99312.22;;;14.50;30.67
75312;BME280;63906;55.686;37.532;2023-04-24T20:40:16;99276.34;;;14.18;30.85
75312;BME280;63906;55.686;37.532;2023-04-24T20:45:19;99305.75;;;14.46;30.86
75312;BME280;63906;55.686;37.532;2023-04-24T20:50:19;99291.16;;;14.74;29.45
75312;BME280;63906;55.686;37.532;2023-04-24T20:55:20;99287.31;;;14.70;29.50
75312;BME280;63906;55.686;37.532;2023-04-24T21:00:20;99282.34;;;14.62;29.94
75312;BME280;63906;55.686;37.532;2023-04-24T21:05:21;99296.53;;;14.67;29.98
75312;BME280;63906;55.686;37.532;2023-04-24T21:10:22;99313.94;;;14.75;29.69
75312;BME280;63906;55.686;37.532;2023-04-24T21:15:24;99296.88;;;14.71;29.96
75312;BME280;63906;55.686;37.532;2023-04-24T21:20:25;99308.38;;;14.65;30.33
75312;BME280;63906;55.686;37.532;2023-04-24T21:25:26;99300.41;;;14.65;30.08
75312;BME280;63906;55.686;37.532;2023-04-24T21:30:27;99303.38;;;14.57;31.08
75312;BME280;63906;55.686;37.532;2023-04-24T21:35:28;99309.25;;;14.40;31.64
75312;BME280;63906;55.686;37.532;2023-04-24T21:40:29;99307.81;;;14.26;31.75
75312;BME280;63906;55.686;37.532;2023-04-24T21:45:30;99298.81;;;14.09;32.70
75312;BME280;63906;55.686;37.532;2023-04-24T21:50:30;99319.84;;;14.22;33.21
75312;BME280;63906;55.686;37.532;2023-04-24T21:55:31;99298.75;;;14.15;32.55
75312;BME280;63906;55.686;37.532;2023-04-24T22:00:32;99289.81;;;14.16;32.54
75312;BME280;63906;55.686;37.532;2023-04-24T22:05:32;99293.34;;;14.10;33.13
75312;BME280;63906;55.686;37.532;2023-04-24T22:10:33;99277.84;;;13.70;33.61
75312;BME280;63906;55.686;37.532;2023-04-24T22:15:34;99296.44;;;13.64;34.25
75312;BME280;63906;55.686;37.532;2023-04-24T22:20:35;99276.66;;;13.48;33.77
75312;BME280;63906;55.686;37.532;2023-04-24T22:25:36;99310.06;;;13.86;33.85
75312;BME280;63906;55.686;37.532;2023-04-24T22:30:37;99245.63;;;13.80;34.74
75312;BME280;63906;55.686;37.532;2023-04-24T22:35:37;99273.69;;;14.18;34.99
75312;BME280;63906;55.686;37.532;2023-04-24T22:40:38;99296.78;;;14.29;35.35
75312;BME280;63906;55.686;37.532;2023-04-24T22:45:39;99296.56;;;14.31;35.88
75312;BME280;63906;55.686;37.532;2023-04-24T22:50:40;99270.66;;;13.96;36.48
75312;BME280;63906;55.686;37.532;2023-04-24T22:55:41;99292.94;;;13.88;36.73
75312;BME280;63906;55.686;37.532;2023-04-24T23:00:42;99279.81;;;13.57;37.54
75312;BME280;63906;55.686;37.532;2023-04-24T23:05:43;99266.22;;;13.28;37.42
75312;BME280;63906;55.686;37.532;2023-04-24T23:10:43;99282.53;;;13.18;37.65
75312;BME280;63906;55.686;37.532;2023-04-24T23:15:44;99303.56;;;13.38;38.56
75312;BME280;63906;55.686;37.532;2023-04-24T23:20:44;99279.38;;;13.35;38.05
75312;BME280;63906;55.686;37.532;2023-04-24T23:25:45;99283.16;;;13.45;38.61
75312;BME280;63906;55.686;37.532;2023-04-24T23:30:46;99282.41;;;13.38;38.64
75312;BME280;63906;55.686;37.532;2023-04-24T23:35:46;99279.06;;;13.25;38.75
75312;BME280;63906;55.686;37.532;2023-04-24T23:40:47;99252.72;;;13.11;38.81
75312;BME280;63906;55.686;37.532;2023-04-24T23:45:49;99256.09;;;12.93;38.48
75312;BME280;63906;55.686;37.532;2023-04-24T23:50:50;99286.69;;;13.08;39.62
75312;BME280;63906;55.686;37.532;2023-04-24T23:55:51;99278.41;;;12.98;40.62
